Time;durP1;ratioP1;P1;durP2;ratioP2;P2;SDS_P1;SDS_P2;PMS_P1;PMS_P2;Temp;Humidity;BMP_temperature;BMP_pressure;BME280_temperature;BME280_humidity;BME280_pressure;Samples;Min_cycle;Max_cycle;Signal;HPM_P1;HPM_P2
2022/06/23 00:00:22;;;;;;;10.70;9.50;;;18.80;99.90;;;;;;5063199;28;20443;-75
2022/06/23 00:03:08;;;;;;;13.80;11.03;;;18.80;99.90;;;;;;5066265;28;20477;-76
2022/06/23 00:05:58;;;;;;;15.80;10.60;;;18.70;99.90;;;;;;5068443;28;20974;-75
2022/06/23 00:08:46;;;;;;;13.33;9.90;;;18.60;99.90;;;;;;5065811;28;20448;-75
2022/06/23 00:11:31;;;;;;;16.90;11.33;;;18.60;99.90;;;;;;5067936;28;20807;-75
2022/06/23 00:14:18;;;;;;;14.30;11.10;;;18.60;99.90;;;;;;5067433;28;21031;-76
2022/06/23 00:17:17;;;;;;;15.63;10.43;;;18.50;99.90;;;;;;5064615;28;20442;-76
2022/06/23 00:20:12;;;;;;;17.80;11.23;;;18.50;99.90;;;;;;5058678;28;20449;-75
2022/06/23 00:23:04;;;;;;;13.97;10.80;;;18.50;99.90;;;;;;5065509;28;20480;-76
2022/06/23 00:25:53;;;;;;;14.33;11.07;;;18.60;99.90;;;;;;5065923;28;20442;-74
2022/06/23 00:28:45;;;;;;;11.93;10.63;;;18.60;99.90;;;;;;5059328;28;20498;-76
2022/06/23 00:31:36;;;;;;;11.83;10.63;;;18.50;99.90;;;;;;5066155;28;20495;-76
2022/06/23 00:34:25;;;;;;;12.53;11.17;;;18.40;99.90;;;;;;5067426;28;20547;-76
2022/06/23 00:37:15;;;;;;;16.10;11.33;;;18.30;99.90;;;;;;5068901;28;20451;-76
2022/06/23 00:40:05;;;;;;;17.47;12.77;;;18.20;99.90;;;;;;5062926;28;20573;-75
2022/06/23 00:42:53;;;;;;;13.03;10.73;;;18.20;99.90;;;;;;5064698;28;20457;-75
2022/06/23 00:45:44;;;;;;;21.00;12.07;;;18.20;99.90;;;;;;5066236;28;21013;-75
2022/06/23 00:48:37;;;;;;;16.73;11.53;;;18.20;99.90;;;;;;5066938;28;20438;-75
2022/06/23 00:51:28;;;;;;;15.80;11.50;;;18.20;99.90;;;;;;5066691;28;20417;-75
2022/06/23 00:54:22;;;;;;;13.03;11.30;;;18.10;99.90;;;;;;5066435;28;20631;-76
2022/06/23 00:57:14;;;;;;;16.63;10.80;;;17.90;99.90;;;;;;5066151;28;20625;-76
2022/06/23 01:00:07;;;;;;;20.67;10.20;;;17.90;99.90;;;;;;5063473;28;20994;-75
2022/06/23 01:02:58;;;;;;;15.23;11.10;;;17.90;99.90;;;;;;5067033;28;20466;-76
2022/06/23 01:05:50;;;;;;;14.97;10.67;;;17.90;99.90;;;;;;5065284;28;20462;-75
2022/06/23 01:08:43;;;;;;;13.10;11.10;;;17.80;99.90;;;;;;5059932;28;20418;-75
2022/06/23 01:11:35;;;;;;;15.10;11.43;;;17.70;99.90;;;;;;5068026;28;20574;-75
2022/06/23 01:14:30;;;;;;;14.27;10.50;;;17.70;99.90;;;;;;5065999;28;20460;-75
2022/06/23 01:17:21;;;;;;;20.27;10.47;;;17.80;99.90;;;;;;5065944;28;20470;-75
2022/06/23 01:20:22;;;;;;;22.40;10.80;;;17.80;99.90;;;;;;5063819;28;20445;-76
2022/06/23 01:23:27;;;;;;;13.90;10.90;;;17.70;99.90;;;;;;5073173;28;20535;-75
2022/06/23 01:26:37;;;;;;;14.10;11.43;;;17.80;99.90;;;;;;5065915;28;20460;-75
2022/06/23 01:29:31;;;;;;;16.00;10.60;;;17.70;99.90;;;;;;5060118;28;20470;-75
2022/06/23 01:32:21;;;;;;;12.53;9.87;;;17.70;99.90;;;;;;5065703;28;20466;-75
2022/06/23 01:35:15;;;;;;;11.57;10.37;;;17.70;99.90;;;;;;5068248;28;20472;-76
2022/06/23 01:38:05;;;;;;;12.40;10.40;;;17.80;99.90;;;;;;5072050;28;21043;-75
2022/06/23 01:40:55;;;;;;;13.60;10.03;;;17.90;99.90;;;;;;5079478;28;20428;-76
2022/06/23 01:43:44;;;;;;;13.53;10.13;;;17.90;99.90;;;;;;5076285;28;20454;-76
2022/06/23 01:46:36;;;;;;;19.30;9.87;;;17.90;99.90;;;;;;5076271;28;20456;-76
2022/06/23 01:49:26;;;;;;;15.13;10.00;;;17.90;99.90;;;;;;5063869;28;20470;-76
2022/06/23 01:52:16;;;;;;;15.30;11.33;;;17.80;99.90;;;;;;5071316;28;20954;-75
2022/06/23 01:55:14;;;;;;;18.80;11.17;;;17.80;99.90;;;;;;5068974;28;20540;-76
2022/06/23 01:58:07;;;;;;;14.37;10.03;;;17.70;99.90;;;;;;5070758;28;20466;-75
2022/06/23 02:00:57;;;;;;;12.03;10.00;;;17.70;99.90;;;;;;5078902;28;20447;-75
2022/06/23 02:03:48;;;;;;;18.00;11.70;;;17.60;99.90;;;;;;5077437;28;20529;-75
2022/06/23 02:06:43;;;;;;;17.13;11.40;;;17.60;99.90;;;;;;5078253;28;20835;-75
2022/06/23 02:09:34;;;;;;;14.57;10.37;;;17.60;99.90;;;;;;5065804;28;20924;-75
2022/06/23 02:12:26;;;;;;;16.27;10.70;;;17.50;99.90;;;;;;5078290;28;20823;-75
2022/06/23 02:15:18;;;;;;;19.70;10.00;;;17.50;99.90;;;;;;5068751;28;20445;-75
2022/06/23 02:18:14;;;;;;;17.20;10.80;;;17.50;99.90;;;;;;5071746;28;20533;-74
2022/06/23 02:21:21;;;;;;;14.43;10.80;;;17.40;99.90;;;;;;5068864;28;20438;-75
2022/06/23 02:24:14;;;;;;;16.57;11.17;;;17.30;99.90;;;;;;5073271;28;20986;-75
2022/06/23 02:27:06;;;;;;;15.87;11.17;;;17.40;99.90;;;;;;5073291;28;20416;-75
2022/06/23 02:29:59;;;;;;;14.60;11.20;;;17.50;99.90;;;;;;5075610;28;20841;-75
2022/06/23 02:33:00;;;;;;;16.23;10.87;;;17.30;99.90;;;;;;5078894;28;20449;-75
2022/06/23 02:35:57;;;;;;;21.23;11.17;;;17.40;99.90;;;;;;5081125;28;20450;-75
2022/06/23 02:38:48;;;;;;;14.03;10.13;;;17.40;99.90;;;;;;5067697;28;20926;-74
2022/06/23 02:41:39;;;;;;;14.93;11.70;;;17.50;99.90;;;;;;5069774;28;20455;-75
2022/06/23 02:44:49;;;;;;;17.77;10.93;;;17.50;99.90;;;;;;5075904;28;20437;-75
2022/06/23 02:47:47;;;;;;;14.20;12.73;;;17.40;99.90;;;;;;5069922;28;20504;-75
2022/06/23 02:50:52;;;;;;;15.43;11.53;;;17.40;99.90;;;;;;5074076;28;20808;-75
2022/06/23 02:53:54;;;;;;;14.27;11.63;;;17.30;99.90;;;;;;5071757;28;20437;-75
2022/06/23 02:56:58;;;;;;;16.60;12.13;;;17.30;99.90;;;;;;5070111;28;20409;-75
2022/06/23 02:59:48;;;;;;;15.20;11.87;;;17.40;99.90;;;;;;5073448;28;20422;-74
2022/06/23 03:02:41;;;;;;;14.17;10.53;;;17.30;99.90;;;;;;5073380;28;20826;-75
2022/06/23 03:05:36;;;;;;;13.20;11.10;;;17.40;99.90;;;;;;5070647;28;20454;-75
2022/06/23 03:08:29;;;;;;;18.37;11.60;;;17.40;99.90;;;;;;5067965;28;20532;-74
2022/06/23 03:11:51;;;;;;;14.80;10.40;;;17.40;99.90;;;;;;5079277;28;20458;-75
2022/06/23 03:14:48;;;;;;;16.60;11.30;;;17.30;99.90;;;;;;5071907;28;20813;-75
2022/06/23 03:17:41;;;;;;;14.90;10.93;;;17.20;99.90;;;;;;5062148;28;20468;-75
2022/06/23 03:20:37;;;;;;;17.43;10.83;;;17.20;99.90;;;;;;5079229;28;20492;-75
2022/06/23 03:23:31;;;;;;;15.80;10.70;;;17.20;99.90;;;;;;5068386;28;20530;-75
2022/06/23 03:26:24;;;;;;;10.87;9.77;;;17.30;99.90;;;;;;5069220;28;20457;-75
2022/06/23 03:29:17;;;;;;;12.43;10.50;;;17.40;99.90;;;;;;5069706;28;20447;-75
2022/06/23 03:32:09;;;;;;;13.70;10.27;;;17.50;99.90;;;;;;5069518;28;20442;-75
2022/06/23 03:34:58;;;;;;;24.00;10.40;;;17.50;99.90;;;;;;5073601;28;20450;-75
2022/06/23 03:37:51;;;;;;;11.00;9.80;;;17.50;99.90;;;;;;5065893;28;20425;-75
2022/06/23 03:43:54;;;;;;;11.57;9.67;;;17.60;99.90;;;;;;5070853;28;20429;-75
2022/06/23 03:46:48;;;;;;;15.00;10.60;;;17.50;99.90;;;;;;5064723;28;20447;-75
2022/06/23 03:49:43;;;;;;;15.43;10.43;;;17.50;99.90;;;;;;5077249;28;20458;-76
2022/06/23 03:52:37;;;;;;;17.50;10.40;;;17.40;99.90;;;;;;5069094;28;20521;-76
2022/06/23 03:55:25;;;;;;;14.00;10.53;;;17.40;99.90;;;;;;5066380;28;20446;-75
2022/06/23 03:58:18;;;;;;;13.77;10.47;;;17.40;99.90;;;;;;5072185;28;20441;-76
2022/06/23 04:01:14;;;;;;;10.90;9.80;;;17.40;99.90;;;;;;5070362;28;20531;-76
2022/06/23 04:04:04;;;;;;;11.03;9.93;;;17.50;99.90;;;;;;5077801;28;20914;-76
2022/06/23 04:06:50;;;;;;;12.23;10.93;;;17.60;99.90;;;;;;5072251;28;20434;-76
2022/06/23 04:09:38;;;;;;;13.40;9.87;;;17.60;99.90;;;;;;5074444;28;20995;-75
2022/06/23 04:12:24;;;;;;;11.23;10.13;;;17.70;99.90;;;;;;5069652;28;20455;-76
2022/06/23 04:15:17;;;;;;;12.10;10.27;;;17.70;99.90;;;;;;5076484;28;20401;-75
2022/06/23 04:18:08;;;;;;;11.93;10.53;;;17.60;99.90;;;;;;5069986;28;20451;-76
2022/06/23 04:20:57;;;;;;;18.77;12.00;;;17.60;99.90;;;;;;5075670;28;20466;-76
2022/06/23 04:23:48;;;;;;;13.90;10.50;;;17.50;99.90;;;;;;5069707;28;20540;-76
2022/06/23 04:26:39;;;;;;;13.60;11.50;;;17.60;99.90;;;;;;5063234;28;20454;-76
2022/06/23 04:29:34;;;;;;;11.97;10.70;;;17.70;99.90;;;;;;5065407;28;20440;-76
2022/06/23 04:32:23;;;;;;;12.77;10.80;;;17.70;99.90;;;;;;5069579;28;20488;-76
2022/06/23 04:35:17;;;;;;;14.80;12.03;;;17.80;99.90;;;;;;5069337;28;20501;-75
2022/06/23 04:38:10;;;;;;;14.43;11.47;;;17.80;99.90;;;;;;5075834;28;20835;-76
2022/06/23 04:41:02;;;;;;;14.27;11.23;;;17.90;99.90;;;;;;5070934;28;20922;-76
2022/06/23 04:43:53;;;;;;;11.63;10.53;;;18.00;99.90;;;;;;5072903;28;20462;-76
2022/06/23 04:46:43;;;;;;;12.23;11.03;;;18.00;99.90;;;;;;5067004;28;20405;-75
2022/06/23 04:49:35;;;;;;;17.23;11.60;;;18.00;99.90;;;;;;5078520;28;20446;-76
2022/06/23 04:52:28;;;;;;;27.23;12.40;;;18.00;99.90;;;;;;5079187;28;20462;-76
2022/06/23 04:55:19;;;;;;;16.07;12.03;;;18.00;99.90;;;;;;5064835;28;20418;-76
2022/06/23 04:58:20;;;;;;;15.27;12.70;;;18.10;99.90;;;;;;5075965;28;21015;-76
2022/06/23 05:01:14;;;;;;;19.20;11.40;;;18.20;99.90;;;;;;5079328;28;20463;-76
2022/06/23 05:04:00;;;;;;;19.60;12.07;;;18.30;99.90;;;;;;5069405;28;20611;-76
2022/06/23 05:06:48;;;;;;;15.43;12.43;;;18.40;99.90;;;;;;5074876;28;20942;-76
2022/06/23 05:09:38;;;;;;;16.30;12.33;;;18.50;99.90;;;;;;5076640;28;20462;-75
2022/06/23 05:12:29;;;;;;;20.57;11.67;;;18.50;99.90;;;;;;5078581;28;20435;-76
2022/06/23 05:15:18;;;;;;;15.47;13.37;;;18.60;99.90;;;;;;5065682;28;20459;-75
2022/06/23 05:18:10;;;;;;;17.73;12.60;;;18.70;99.90;;;;;;5081067;28;20442;-75
2022/06/23 05:20:59;;;;;;;14.77;13.00;;;18.80;99.90;;;;;;5076242;28;20416;-75
2022/06/23 05:23:50;;;;;;;14.20;11.73;;;18.80;99.90;;;;;;5073676;28;20549;-75
2022/06/23 05:26:44;;;;;;;22.27;13.20;;;18.90;99.90;;;;;;5074464;28;20446;-74
2022/06/23 05:29:36;;;;;;;17.90;12.10;;;19.00;99.90;;;;;;5072528;28;20424;-75
2022/06/23 05:32:27;;;;;;;21.13;13.00;;;19.10;99.90;;;;;;5074528;28;20445;-75
2022/06/23 05:35:20;;;;;;;19.87;13.00;;;19.20;99.90;;;;;;5070096;28;20444;-75
2022/06/23 05:38:10;;;;;;;18.70;12.70;;;19.20;99.90;;;;;;5076435;28;20431;-75
2022/06/23 05:40:57;;;;;;;16.10;12.40;;;19.30;99.90;;;;;;5082341;28;20443;-75
2022/06/23 05:43:46;;;;;;;12.73;11.50;;;19.40;99.90;;;;;;5070792;28;20428;-74
2022/06/23 05:46:33;;;;;;;13.07;11.00;;;19.50;99.90;;;;;;5067704;28;20496;-75
2022/06/23 05:49:21;;;;;;;13.03;11.27;;;19.60;99.90;;;;;;5071641;28;20529;-75
2022/06/23 05:52:12;;;;;;;14.67;11.80;;;19.70;99.90;;;;;;5070673;28;20487;-76
2022/06/23 05:55:03;;;;;;;13.80;11.20;;;19.80;99.90;;;;;;5064648;28;20562;-75
2022/06/23 05:57:55;;;;;;;23.43;12.20;;;19.90;99.90;;;;;;5071078;28;20926;-75
2022/06/23 06:00:47;;;;;;;13.13;11.73;;;20.00;99.90;;;;;;5070668;28;20455;-75
2022/06/23 06:03:39;;;;;;;17.63;12.57;;;20.00;99.90;;;;;;5066291;28;20470;-75
2022/06/23 06:06:25;;;;;;;14.77;12.73;;;20.20;99.90;;;;;;5066364;28;20768;-75
2022/06/23 06:12:21;;;;;;;17.40;12.50;;;20.40;99.90;;;;;;5068600;28;20459;-75
2022/06/23 06:15:14;;;;;;;24.23;14.07;;;20.60;99.90;;;;;;5066653;28;20450;-75
2022/06/23 06:18:08;;;;;;;13.93;12.30;;;20.70;99.90;;;;;;5070099;28;20447;-75
2022/06/23 06:20:56;;;;;;;13.70;12.40;;;20.80;99.90;;;;;;5070702;28;20904;-75
2022/06/23 06:23:47;;;;;;;19.53;11.10;;;20.90;99.90;;;;;;5068506;28;20516;-75
2022/06/23 06:26:38;;;;;;;14.57;12.00;;;21.00;99.90;;;;;;5070270;28;20446;-75
2022/06/23 06:29:28;;;;;;;19.53;14.50;;;21.10;99.90;;;;;;5065798;28;20657;-76
2022/06/23 06:32:27;;;;;;;16.03;12.97;;;21.30;99.90;;;;;;5069148;28;20463;-75
2022/06/23 06:35:26;;;;;;;17.77;11.73;;;21.40;99.90;;;;;;5068800;28;20442;-75
2022/06/23 06:38:15;;;;;;;16.30;11.70;;;21.50;99.90;;;;;;5071208;28;20450;-76
2022/06/23 06:41:01;;;;;;;15.50;11.27;;;21.60;99.90;;;;;;5070000;28;20988;-75
2022/06/23 06:43:46;;;;;;;17.23;11.30;;;21.70;99.90;;;;;;5067106;28;20482;-76
2022/06/23 06:46:32;;;;;;;14.93;11.30;;;21.80;99.90;;;;;;5069540;28;20434;-75
2022/06/23 06:49:20;;;;;;;16.60;10.97;;;21.90;99.90;;;;;;5070294;28;20516;-76
2022/06/23 06:52:09;;;;;;;17.23;10.73;;;22.00;99.90;;;;;;5070079;28;20474;-76
2022/06/23 06:54:59;;;;;;;18.70;12.37;;;22.00;99.90;;;;;;5067397;28;20454;-76
2022/06/23 06:57:51;;;;;;;14.50;10.70;;;22.20;99.90;;;;;;5069854;28;20853;-75
2022/06/23 07:00:42;;;;;;;15.70;11.03;;;22.20;99.90;;;;;;5067434;28;20441;-75
2022/06/23 07:03:29;;;;;;;21.83;11.37;;;22.30;99.90;;;;;;5059598;28;20454;-75
2022/06/23 07:06:20;;;;;;;12.27;9.90;;;22.40;99.90;;;;;;5069828;28;20438;-75
2022/06/23 07:09:16;;;;;;;17.90;11.27;;;22.50;99.90;;;;;;5062659;28;20438;-75
2022/06/23 07:12:06;;;;;;;18.27;11.80;;;22.50;99.90;;;;;;5071004;28;20552;-76
2022/06/23 07:15:02;;;;;;;18.60;12.40;;;22.60;99.90;;;;;;5068739;28;20543;-76
2022/06/23 07:17:56;;;;;;;18.10;14.50;;;22.60;99.90;;;;;;5068757;28;20438;-75
2022/06/23 07:20:46;;;;;;;18.97;14.20;;;22.60;99.90;;;;;;5068149;28;20946;-76
2022/06/23 07:23:50;;;;;;;19.60;13.77;;;22.70;99.90;;;;;;5062265;28;20467;-75
2022/06/23 07:26:46;;;;;;;14.97;11.47;;;22.70;99.90;;;;;;5065017;28;20450;-76
2022/06/23 07:29:38;;;;;;;18.37;14.40;;;22.70;99.90;;;;;;5065629;28;20952;-75
2022/06/23 07:32:37;;;;;;;23.20;12.70;;;22.70;99.90;;;;;;5062378;28;20471;-74
2022/06/23 07:35:29;;;;;;;18.30;12.90;;;22.80;99.90;;;;;;5071207;28;20466;-75
2022/06/23 07:38:21;;;;;;;17.27;12.63;;;22.90;99.90;;;;;;5067651;28;20435;-75
2022/06/23 07:41:15;;;;;;;19.03;12.40;;;23.00;99.90;;;;;;5071085;28;20446;-75
2022/06/23 07:44:10;;;;;;;21.20;12.60;;;23.10;99.90;;;;;;5065529;28;20604;-75
2022/06/23 07:46:56;;;;;;;21.57;11.30;;;23.10;99.90;;;;;;5068285;28;20965;-74
2022/06/23 07:49:42;;;;;;;15.33;10.97;;;23.10;99.90;;;;;;5067954;28;20465;-75
2022/06/23 07:52:28;;;;;;;20.33;11.63;;;23.10;99.90;;;;;;5066929;28;20556;-75
2022/06/23 07:55:20;;;;;;;18.70;12.20;;;23.10;99.90;;;;;;5075624;28;20439;-75
2022/06/23 07:58:07;;;;;;;14.23;11.10;;;23.20;99.90;;;;;;5063761;28;20420;-74
2022/06/23 08:00:59;;;;;;;13.60;11.60;;;23.30;99.90;;;;;;5067249;28;20540;-75
2022/06/23 08:03:53;;;;;;;23.30;9.87;;;23.40;99.90;;;;;;5060902;28;20498;-75
2022/06/23 08:06:39;;;;;;;18.47;9.90;;;23.50;99.90;;;;;;5065697;28;20447;-75
2022/06/23 08:09:29;;;;;;;10.57;8.60;;;23.60;99.90;;;;;;5059460;28;20434;-75
2022/06/23 08:18:37;;;;;;;15.40;8.30;;;24.00;99.90;;;;;;5068751;28;20446;-75
2022/06/23 08:21:27;;;;;;;10.57;7.87;;;24.10;99.90;;;;;;5067680;28;20801;-75
2022/06/23 08:24:15;;;;;;;18.53;7.70;;;24.10;99.90;;;;;;5072089;28;20466;-74
2022/06/23 08:27:06;;;;;;;16.80;8.60;;;24.10;99.90;;;;;;5068147;28;20490;-75
2022/06/23 08:29:57;;;;;;;13.27;8.40;;;24.20;99.90;;;;;;5071035;28;20446;-75
2022/06/23 08:32:47;;;;;;;21.20;9.17;;;24.20;99.90;;;;;;5072744;28;20556;-75
2022/06/23 08:35:41;;;;;;;10.27;7.33;;;24.30;99.90;;;;;;5070491;28;20469;-75
2022/06/23 08:38:30;;;;;;;11.97;7.70;;;24.40;99.90;;;;;;5072106;28;20784;-75
2022/06/23 08:41:27;;;;;;;17.03;7.83;;;24.40;99.90;;;;;;5065148;28;20454;-75
2022/06/23 08:44:19;;;;;;;14.07;7.90;;;24.50;99.90;;;;;;5066087;28;20520;-75
2022/06/23 08:47:12;;;;;;;16.23;7.90;;;24.50;99.90;;;;;;5065205;28;20430;-74
2022/06/23 08:50:03;;;;;;;8.57;6.50;;;24.50;99.90;;;;;;5081985;28;20430;-75
2022/06/23 08:52:57;;;;;;;9.53;6.60;;;24.60;99.90;;;;;;5067292;28;20494;-75
2022/06/23 08:55:49;;;;;;;10.60;6.30;;;24.40;99.90;;;;;;5068486;28;20418;-75
2022/06/23 08:58:40;;;;;;;12.30;7.00;;;24.30;99.90;;;;;;5078196;28;20461;-75
2022/06/23 09:01:32;;;;;;;10.20;6.77;;;24.30;99.90;;;;;;5065700;28;20444;-75
2022/06/23 09:04:28;;;;;;;11.13;6.53;;;24.40;99.90;;;;;;5068356;28;20572;-75
2022/06/23 09:07:23;;;;;;;12.00;6.93;;;24.40;99.90;;;;;;5077438;28;20499;-75
2022/06/23 09:10:22;;;;;;;10.60;6.80;;;24.50;99.90;;;;;;5066955;28;20446;-75
2022/06/23 09:13:18;;;;;;;8.63;7.33;;;24.60;99.90;;;;;;5072818;28;20511;-75
2022/06/23 09:16:22;;;;;;;21.77;8.70;;;24.80;99.90;;;;;;5067706;28;20973;-75
2022/06/23 09:19:32;;;;;;;12.47;6.87;;;24.80;99.90;;;;;;5067022;28;20447;-75
2022/06/23 09:22:44;;;;;;;9.03;6.77;;;24.80;99.90;;;;;;5065271;28;20437;-75
2022/06/23 09:25:41;;;;;;;14.20;7.20;;;24.80;99.90;;;;;;5067997;28;20991;-75
2022/06/23 09:28:41;;;;;;;9.07;6.30;;;24.90;99.90;;;;;;5065122;28;20458;-75
2022/06/23 09:31:37;;;;;;;12.67;6.33;;;25.00;99.90;;;;;;5063992;28;20466;-75
2022/06/23 09:34:43;;;;;;;12.70;6.40;;;24.90;99.80;;;;;;5068869;28;20474;-75
2022/06/23 09:38:07;;;;;;;9.60;6.43;;;24.90;99.90;;;;;;5074054;28;20466;-74
2022/06/23 09:41:05;;;;;;;10.40;6.57;;;24.80;98.80;;;;;;5054139;28;20958;-74
2022/06/23 09:44:25;;;;;;;9.40;6.07;;;24.80;99.90;;;;;;5074542;28;20544;-75
2022/06/23 09:47:40;;;;;;;16.50;5.57;;;25.00;97.60;;;;;;5075038;28;20516;-75
2022/06/23 09:50:45;;;;;;;11.20;5.60;;;25.30;94.80;;;;;;5058543;28;20438;-74
2022/06/23 09:53:51;;;;;;;12.87;5.63;;;25.50;93.80;;;;;;5065284;28;20667;-75
2022/06/23 09:56:58;;;;;;;12.30;6.70;;;25.50;91.50;;;;;;5069670;28;20458;-74
2022/06/23 10:00:00;;;;;;;12.43;5.40;;;25.50;93.20;;;;;;5068675;28;20433;-74
2022/06/23 10:03:04;;;;;;;8.13;4.73;;;25.70;93.60;;;;;;5070903;28;20944;-75
2022/06/23 10:06:19;;;;;;;15.80;5.13;;;26.00;86.60;;;;;;5072330;28;20454;-75
2022/06/23 10:09:14;;;;;;;11.93;4.60;;;26.30;84.50;;;;;;5072000;28;20427;-75
2022/06/23 10:12:46;;;;;;;10.07;5.10;;;26.40;82.00;;;;;;5075084;28;20482;-75
2022/06/23 10:15:58;;;;;;;5.73;4.17;;;26.30;77.80;;;;;;5067985;28;20446;-75
2022/06/23 10:19:01;;;;;;;8.10;4.53;;;26.30;77.60;;;;;;5077225;28;20476;-75
2022/06/23 10:21:57;;;;;;;10.93;4.47;;;26.30;76.00;;;;;;5068288;28;20496;-72
2022/06/23 10:25:09;;;;;;;10.03;4.40;;;26.30;77.50;;;;;;5067214;28;20481;-74
2022/06/23 10:28:24;;;;;;;11.60;4.97;;;26.30;78.30;;;;;;5070672;28;20819;-74
2022/06/23 10:31:26;;;;;;;15.43;4.90;;;26.50;72.80;;;;;;5063826;28;20829;-74
2022/06/23 10:34:30;;;;;;;11.97;4.90;;;26.40;72.00;;;;;;5068308;28;20469;-74
2022/06/23 10:37:33;;;;;;;8.00;4.23;;;26.30;72.40;;;;;;5064416;28;20458;-74
2022/06/23 10:40:41;;;;;;;10.20;4.83;;;26.20;75.70;;;;;;5071470;28;20484;-74
2022/06/23 10:43:55;;;;;;;9.60;4.40;;;26.40;73.40;;;;;;5065893;28;21317;-74
2022/06/23 10:46:50;;;;;;;9.57;4.30;;;26.60;73.70;;;;;;5068391;28;21010;-74
2022/06/23 10:49:57;;;;;;;12.20;4.30;;;26.90;75.90;;;;;;5065706;28;20446;-74
2022/06/23 10:53:21;;;;;;;7.90;4.30;;;27.20;74.00;;;;;;5076607;28;20830;-74
2022/06/23 10:56:28;;;;;;;12.73;4.50;;;27.40;67.20;;;;;;4988662;28;21046;-74
2022/06/23 10:59:38;;;;;;;11.10;4.37;;;27.50;66.60;;;;;;5064252;28;20466;-74
2022/06/23 11:03:08;;;;;;;12.70;5.00;;;27.50;64.50;;;;;;5070632;28;20431;-74
2022/06/23 11:06:39;;;;;;;9.53;4.00;;;27.70;62.20;;;;;;5027210;28;20964;-74
2022/06/23 11:09:45;;;;;;;12.40;4.67;;;27.80;62.70;;;;;;5060326;28;20463;-74
2022/06/23 11:12:45;;;;;;;13.27;5.27;;;28.00;63.00;;;;;;5066550;28;20478;-74
2022/06/23 11:15:41;;;;;;;11.20;4.50;;;28.20;62.10;;;;;;5072939;28;20533;-75
2022/06/23 11:18:47;;;;;;;9.37;5.00;;;28.20;56.70;;;;;;5071740;28;20886;-76
2022/06/23 11:21:47;;;;;;;10.60;4.50;;;28.30;56.60;;;;;;5076708;28;20434;-76
2022/06/23 11:24:42;;;;;;;10.80;4.53;;;28.40;56.30;;;;;;5074009;28;20987;-76
2022/06/23 11:27:38;;;;;;;14.67;5.17;;;28.20;56.80;;;;;;5077696;28;20419;-75
2022/06/23 11:30:32;;;;;;;8.23;4.63;;;28.20;62.40;;;;;;5072557;28;20453;-75
2022/06/23 11:33:46;;;;;;;11.60;5.23;;;28.30;60.30;;;;;;5071954;28;20478;-75
2022/06/23 11:36:54;;;;;;;13.00;5.10;;;28.30;58.40;;;;;;5072080;28;20533;-76
2022/06/23 11:40:07;;;;;;;10.30;4.43;;;28.30;59.20;;;;;;5069556;28;20820;-76
2022/06/23 11:43:16;;;;;;;16.30;5.17;;;28.40;58.10;;;;;;5078159;28;20458;-75
2022/06/23 11:46:14;;;;;;;9.00;4.70;;;28.40;56.50;;;;;;5081320;28;20569;-76
2022/06/23 11:49:28;;;;;;;14.63;5.07;;;28.20;55.60;;;;;;5077508;28;20542;-76
2022/06/23 11:52:31;;;;;;;9.67;5.10;;;28.40;57.40;;;;;;5073389;28;20473;-76
2022/06/23 11:55:41;;;;;;;8.93;4.40;;;28.60;56.50;;;;;;5081299;28;20430;-74
2022/06/23 11:58:44;;;;;;;17.33;5.17;;;28.80;57.10;;;;;;5072707;28;20959;-76
2022/06/23 12:01:30;;;;;;;11.23;4.83;;;28.80;55.10;;;;;;5069243;28;20457;-76
2022/06/23 12:04:43;;;;;;;11.70;5.27;;;28.70;55.80;;;;;;5070779;28;20501;-74
2022/06/23 12:07:49;;;;;;;13.07;5.20;;;28.80;57.10;;;;;;5067833;28;20521;-76
2022/06/23 12:10:36;;;;;;;7.37;4.10;;;28.90;56.50;;;;;;5071142;28;20818;-74
2022/06/23 12:13:23;;;;;;;11.73;4.60;;;29.20;50.60;;;;;;5070637;28;20475;-76
2022/06/23 12:16:09;;;;;;;19.70;5.17;;;29.30;52.00;;;;;;5079618;28;20445;-77
2022/06/23 12:19:01;;;;;;;8.77;4.80;;;29.20;51.20;;;;;;5068987;28;20592;-76
2022/06/23 12:21:52;;;;;;;7.97;4.00;;;29.00;53.20;;;;;;5080660;28;20419;-76
2022/06/23 12:24:46;;;;;;;9.50;4.40;;;28.80;54.90;;;;;;5078700;28;20561;-75
2022/06/23 12:27:37;;;;;;;10.37;4.80;;;28.80;54.30;;;;;;5075303;28;20454;-75
2022/06/23 12:30:23;;;;;;;10.03;4.90;;;28.80;56.10;;;;;;5071444;28;20443;-76
2022/06/23 12:33:17;;;;;;;10.47;4.73;;;28.90;57.70;;;;;;5070607;28;20497;-76
2022/06/23 12:36:09;;;;;;;10.80;4.93;;;29.00;57.50;;;;;;5071734;28;20446;-76
2022/06/23 12:39:01;;;;;;;7.30;4.13;;;29.20;52.60;;;;;;5069074;28;20809;-75
2022/06/23 12:41:53;;;;;;;9.57;3.93;;;29.10;50.00;;;;;;5077492;28;20443;-76
2022/06/23 12:44:50;;;;;;;6.37;4.00;;;29.40;54.80;;;;;;5078297;28;20442;-74
2022/06/23 12:47:47;;;;;;;7.83;3.47;;;29.70;47.30;;;;;;5076136;28;20454;-74
2022/06/23 12:50:46;;;;;;;10.60;3.90;;;29.80;48.80;;;;;;5076765;28;20425;-74
2022/06/23 12:53:47;;;;;;;10.60;3.70;;;30.00;45.60;;;;;;5076814;28;20864;-76
2022/06/23 12:57:07;;;;;;;9.60;4.03;;;30.20;45.70;;;;;;5068798;28;20426;-76
2022/06/23 13:00:00;;;;;;;12.30;4.63;;;30.20;43.40;;;;;;5073863;28;20497;-74
2022/06/23 13:02:52;;;;;;;13.13;4.30;;;30.10;42.90;;;;;;5070791;28;20442;-77
2022/06/23 13:05:46;;;;;;;10.80;3.67;;;30.30;45.00;;;;;;5071369;28;20442;-76
2022/06/23 13:08:43;;;;;;;6.13;3.80;;;30.50;45.30;;;;;;5069387;28;20536;-76
2022/06/23 13:11:33;;;;;;;12.37;4.50;;;30.80;43.40;;;;;;5086700;28;20437;-76
2022/06/23 13:14:27;;;;;;;9.40;4.10;;;30.90;39.80;;;;;;5081849;28;20819;-72
2022/06/23 13:17:21;;;;;;;14.10;4.90;;;30.80;41.80;;;;;;5068702;28;20450;-75
2022/06/23 13:20:16;;;;;;;9.03;4.30;;;31.00;40.00;;;;;;5073590;28;20617;-77
2022/06/23 13:23:07;;;;;;;9.47;4.13;;;31.20;41.30;;;;;;5077360;28;20454;-76
2022/06/23 13:25:56;;;;;;;11.13;4.07;;;31.30;43.40;;;;;;5072971;28;20984;-76
2022/06/23 13:28:44;;;;;;;8.17;4.20;;;31.50;39.40;;;;;;5069367;28;21006;-76
2022/06/23 13:31:39;;;;;;;7.30;3.20;;;31.70;42.20;;;;;;5072087;28;20488;-76
2022/06/23 13:34:28;;;;;;;7.93;3.20;;;31.80;39.10;;;;;;5073423;28;20458;-76
2022/06/23 13:37:19;;;;;;;9.47;3.10;;;31.90;33.60;;;;;;5066334;28;20442;-76
2022/06/23 13:40:19;;;;;;;9.07;3.20;;;31.90;34.50;;;;;;5075535;28;20442;-76
2022/06/23 13:43:11;;;;;;;8.80;3.60;;;32.10;35.90;;;;;;5073765;28;20462;-76
2022/06/23 13:46:03;;;;;;;10.97;3.60;;;32.10;34.50;;;;;;5073241;28;20519;-76
2022/06/23 13:48:55;;;;;;;10.97;3.60;;;31.70;36.80;;;;;;5072194;28;20549;-76
2022/06/23 13:51:48;;;;;;;10.20;3.90;;;31.30;35.70;;;;;;5075916;28;20430;-75
2022/06/23 13:54:41;;;;;;;16.63;4.20;;;30.80;36.20;;;;;;5072786;28;20509;-76
2022/06/23 13:57:34;;;;;;;13.60;3.43;;;30.60;38.90;;;;;;5069048;28;20643;-77
2022/06/23 14:00:26;;;;;;;10.27;3.23;;;30.80;38.70;;;;;;5070300;28;20442;-76
2022/06/23 14:03:17;;;;;;;5.70;3.10;;;31.10;36.30;;;;;;5069853;28;20467;-72
2022/06/23 14:06:09;;;;;;;9.30;3.67;;;31.30;36.10;;;;;;5069599;28;20505;-73
2022/06/23 14:08:59;;;;;;;6.47;3.40;;;31.40;35.80;;;;;;5071468;28;20454;-75
2022/06/23 14:11:51;;;;;;;14.40;3.37;;;31.70;35.20;;;;;;5073845;28;20438;-75
2022/06/23 14:14:42;;;;;;;10.80;3.00;;;31.60;35.90;;;;;;5071282;28;20841;-75
2022/06/23 14:17:35;;;;;;;13.07;4.40;;;31.80;34.60;;;;;;5066293;28;20813;-75
2022/06/23 14:20:30;;;;;;;9.13;3.23;;;31.80;35.20;;;;;;5070722;28;20528;-73
2022/06/23 14:23:22;;;;;;;7.87;3.63;;;31.70;31.60;;;;;;5072706;28;20552;-74
2022/06/23 14:26:11;;;;;;;7.77;3.50;;;31.50;34.10;;;;;;5068164;28;20559;-74
2022/06/23 14:29:04;;;;;;;8.17;3.50;;;31.70;35.20;;;;;;5074297;28;20442;-75
2022/06/23 14:31:55;;;;;;;10.63;3.20;;;31.80;34.20;;;;;;5073367;28;20434;-74
2022/06/23 14:34:46;;;;;;;10.30;3.30;;;32.00;35.20;;;;;;5069361;28;20493;-75
2022/06/23 14:37:40;;;;;;;13.87;3.40;;;31.90;32.30;;;;;;5065467;28;20536;-75
2022/06/23 14:40:36;;;;;;;11.40;2.73;;;31.70;33.90;;;;;;5074043;28;20442;-75
2022/06/23 14:43:40;;;;;;;8.10;3.20;;;31.60;34.50;;;;;;5071746;28;20470;-75
2022/06/23 14:46:36;;;;;;;8.30;3.30;;;31.70;35.10;;;;;;5065900;28;20469;-73
2022/06/23 14:49:58;;;;;;;6.67;3.13;;;31.70;33.10;;;;;;5074194;28;20533;-75
2022/06/23 14:52:50;;;;;;;8.53;3.50;;;31.80;34.00;;;;;;5076078;28;20469;-74
2022/06/23 14:55:41;;;;;;;8.73;3.17;;;31.90;32.30;;;;;;5064129;28;20458;-75
2022/06/23 14:58:35;;;;;;;10.83;3.43;;;32.00;32.70;;;;;;5067626;28;20506;-75
2022/06/23 15:01:31;;;;;;;7.20;3.70;;;32.20;34.80;;;;;;5068610;28;20454;-75
2022/06/23 15:04:24;;;;;;;13.43;3.77;;;32.30;33.70;;;;;;5066998;28;20459;-75
2022/06/23 15:07:18;;;;;;;8.87;2.93;;;32.40;32.10;;;;;;5066829;28;20976;-75